sensor_id;sensor_type;location;lat;lon;timestamp;temperature;humidity
37412;DHT22;23278;52.110;6.050;2022-10-16T00:00:31;12.40;99.90
37412;DHT22;23278;52.110;6.050;2022-10-16T00:02:57;12.40;99.90
37412;DHT22;23278;52.110;6.050;2022-10-16T00:05:23;12.40;99.90
37412;DHT22;23278;52.110;6.050;2022-10-16T00:07:49;12.30;99.90
37412;DHT22;23278;52.110;6.050;2022-10-16T00:10:15;12.30;99.90
37412;DHT22;23278;52.110;6.050;2022-10-16T00:12:41;12.30;99.90
37412;DHT22;23278;52.110;6.050;2022-10-16T00:15:07;12.30;99.90
37412;DHT22;23278;52.110;6.050;2022-10-16T00:17:33;12.20;99.90
37412;DHT22;23278;52.110;6.050;2022-10-16T00:19:59;12.20;99.90
37412;DHT22;23278;52.110;6.050;2022-10-16T00:22:44;12.10;99.90
37412;DHT22;23278;52.110;6.050;2022-10-16T00:25:10;12.20;99.90
37412;DHT22;23278;52.110;6.050;2022-10-16T00:27:36;12.10;99.90
37412;DHT22;23278;52.110;6.050;2022-10-16T00:30:01;12.10;99.90
37412;DHT22;23278;52.110;6.050;2022-10-16T00:32:28;12.10;99.90
37412;DHT22;23278;52.110;6.050;2022-10-16T00:34:53;12.10;99.90
37412;DHT22;23278;52.110;6.050;2022-10-16T00:37:22;12.10;99.90
37412;DHT22;23278;52.110;6.050;2022-10-16T00:39:48;12.10;99.90
37412;DHT22;23278;52.110;6.050;2022-10-16T00:42:16;12.10;99.90
37412;DHT22;23278;52.110;6.050;2022-10-16T00:44:44;12.10;99.90
37412;DHT22;23278;52.110;6.050;2022-10-16T00:47:24;12.10;99.90
37412;DHT22;23278;52.110;6.050;2022-10-16T00:49:55;12.10;99.90
37412;DHT22;23278;52.110;6.050;2022-10-16T00:52:22;12.10;99.90
37412;DHT22;23278;52.110;6.050;2022-10-16T00:54:49;12.10;99.90
37412;DHT22;23278;52.110;6.050;2022-10-16T00:57:16;12.00;99.90
37412;DHT22;23278;52.110;6.050;2022-10-16T00:59:42;12.00;99.90
37412;DHT22;23278;52.110;6.050;2022-10-16T01:02:12;12.00;99.90
37412;DHT22;23278;52.110;6.050;2022-10-16T01:04:50;11.90;99.90
37412;DHT22;23278;52.110;6.050;2022-10-16T01:13:05;11.90;99.90
37412;DHT22;23278;52.110;6.050;2022-10-16T01:16:12;11.90;99.90
37412;DHT22;23278;52.110;6.050;2022-10-16T01:18:54;11.90;99.90
37412;DHT22;23278;52.110;6.050;2022-10-16T01:21:26;12.10;99.90
37412;DHT22;23278;52.110;6.050;2022-10-16T01:24:25;12.00;99.90
37412;DHT22;23278;52.110;6.050;2022-10-16T01:27:08;12.10;99.90
37412;DHT22;23278;52.110;6.050;2022-10-16T01:34:58;12.20;99.90
37412;DHT22;23278;52.110;6.050;2022-10-16T01:40:26;12.20;99.90
37412;DHT22;23278;52.110;6.050;2022-10-16T01:42:56;12.20;99.90
37412;DHT22;23278;52.110;6.050;2022-10-16T01:45:25;12.20;99.90
37412;DHT22;23278;52.110;6.050;2022-10-16T01:47:53;12.20;99.90
37412;DHT22;23278;52.110;6.050;2022-10-16T01:55:00;12.40;99.90
37412;DHT22;23278;52.110;6.050;2022-10-16T01:57:28;12.40;99.90
37412;DHT22;23278;52.110;6.050;2022-10-16T02:00:00;12.50;99.90
37412;DHT22;23278;52.110;6.050;2022-10-16T02:02:28;12.50;99.90
37412;DHT22;23278;52.110;6.050;2022-10-16T02:05:04;12.40;99.90
37412;DHT22;23278;52.110;6.050;2022-10-16T02:07:30;12.40;99.90
37412;DHT22;23278;52.110;6.050;2022-10-16T02:09:56;12.40;99.90
37412;DHT22;23278;52.110;6.050;2022-10-16T02:12:27;12.50;99.90
37412;DHT22;23278;52.110;6.050;2022-10-16T02:14:54;12.50;99.90
37412;DHT22;23278;52.110;6.050;2022-10-16T02:17:21;12.60;99.90
37412;DHT22;23278;52.110;6.050;2022-10-16T02:19:50;12.50;99.90
37412;DHT22;23278;52.110;6.050;2022-10-16T02:22:26;12.50;99.90
37412;DHT22;23278;52.110;6.050;2022-10-16T02:25:03;12.50;99.90
37412;DHT22;23278;52.110;6.050;2022-10-16T02:27:41;12.60;99.90
37412;DHT22;23278;52.110;6.050;2022-10-16T02:30:23;12.60;99.90
37412;DHT22;23278;52.110;6.050;2022-10-16T02:32:51;12.70;99.90
37412;DHT22;23278;52.110;6.050;2022-10-16T02:35:20;12.70;99.90
37412;DHT22;23278;52.110;6.050;2022-10-16T02:37:47;12.70;99.90
37412;DHT22;23278;52.110;6.050;2022-10-16T02:40:14;12.70;99.90
37412;DHT22;23278;52.110;6.050;2022-10-16T02:42:41;12.70;99.90
37412;DHT22;23278;52.110;6.050;2022-10-16T02:45:09;12.60;99.90
37412;DHT22;23278;52.110;6.050;2022-10-16T02:47:35;12.60;99.90
37412;DHT22;23278;52.110;6.050;2022-10-16T02:50:01;12.60;99.90
37412;DHT22;23278;52.110;6.050;2022-10-16T02:52:27;12.50;99.90
37412;DHT22;23278;52.110;6.050;2022-10-16T02:54:52;12.50;99.90
37412;DHT22;23278;52.110;6.050;2022-10-16T02:57:18;12.50;99.90
37412;DHT22;23278;52.110;6.050;2022-10-16T02:59:44;12.50;99.90
37412;DHT22;23278;52.110;6.050;2022-10-16T03:02:11;12.50;99.90
37412;DHT22;23278;52.110;6.050;2022-10-16T03:04:37;12.50;99.90
37412;DHT22;23278;52.110;6.050;2022-10-16T03:07:03;12.50;99.90
37412;DHT22;23278;52.110;6.050;2022-10-16T03:09:29;12.50;99.90
37412;DHT22;23278;52.110;6.050;2022-10-16T03:11:55;12.40;99.90
37412;DHT22;23278;52.110;6.050;2022-10-16T03:14:21;12.40;99.90
37412;DHT22;23278;52.110;6.050;2022-10-16T03:16:47;12.50;99.90
37412;DHT22;23278;52.110;6.050;2022-10-16T03:19:12;12.60;99.90
37412;DHT22;23278;52.110;6.050;2022-10-16T03:21:38;12.70;99.90
37412;DHT22;23278;52.110;6.050;2022-10-16T03:24:04;12.70;99.90
37412;DHT22;23278;52.110;6.050;2022-10-16T03:26:30;12.80;99.90
37412;DHT22;23278;52.110;6.050;2022-10-16T03:28:56;12.90;99.90
37412;DHT22;23278;52.110;6.050;2022-10-16T03:31:22;12.90;99.90
37412;DHT22;23278;52.110;6.050;2022-10-16T03:33:48;12.90;99.90
37412;DHT22;23278;52.110;6.050;2022-10-16T03:36:14;12.80;99.90
37412;DHT22;23278;52.110;6.050;2022-10-16T03:38:42;12.80;99.90
37412;DHT22;23278;52.110;6.050;2022-10-16T03:41:08;12.70;99.90
37412;DHT22;23278;52.110;6.050;2022-10-16T03:43:34;12.70;99.90
37412;DHT22;23278;52.110;6.050;2022-10-16T03:46:00;12.70;99.90
37412;DHT22;23278;52.110;6.050;2022-10-16T03:48:25;12.70;99.90
37412;DHT22;23278;52.110;6.050;2022-10-16T03:50:51;12.60;99.90
37412;DHT22;23278;52.110;6.050;2022-10-16T03:53:18;12.60;99.90
37412;DHT22;23278;52.110;6.050;2022-10-16T03:55:44;12.60;99.90
37412;DHT22;23278;52.110;6.050;2022-10-16T03:58:10;12.60;99.90
37412;DHT22;23278;52.110;6.050;2022-10-16T04:05:04;12.80;99.90
37412;DHT22;23278;52.110;6.050;2022-10-16T04:07:30;12.80;99.90
37412;DHT22;23278;52.110;6.050;2022-10-16T04:09:56;12.80;99.90
37412;DHT22;23278;52.110;6.050;2022-10-16T04:12:25;12.80;99.90
37412;DHT22;23278;52.110;6.050;2022-10-16T04:14:51;12.70;99.90
37412;DHT22;23278;52.110;6.050;2022-10-16T04:17:16;12.70;99.90
37412;DHT22;23278;52.110;6.050;2022-10-16T04:19:42;12.70;99.90
37412;DHT22;23278;52.110;6.050;2022-10-16T04:22:17;12.70;99.90
37412;DHT22;23278;52.110;6.050;2022-10-16T04:24:43;12.80;99.90
37412;DHT22;23278;52.110;6.050;2022-10-16T04:27:09;12.80;99.90
37412;DHT22;23278;52.110;6.050;2022-10-16T04:29:35;12.80;99.90
37412;DHT22;23278;52.110;6.050;2022-10-16T04:32:01;12.80;99.90
37412;DHT22;23278;52.110;6.050;2022-10-16T04:34:26;12.80;99.90
37412;DHT22;23278;52.110;6.050;2022-10-16T04:36:52;12.80;99.90
37412;DHT22;23278;52.110;6.050;2022-10-16T04:39:18;12.70;99.90
37412;DHT22;23278;52.110;6.050;2022-10-16T04:41:44;12.80;99.90
37412;DHT22;23278;52.110;6.050;2022-10-16T04:44:10;12.80;99.90
37412;DHT22;23278;52.110;6.050;2022-10-16T04:46:36;12.80;99.90
37412;DHT22;23278;52.110;6.050;2022-10-16T04:49:02;12.80;99.90
37412;DHT22;23278;52.110;6.050;2022-10-16T04:51:28;12.80;99.90
37412;DHT22;23278;52.110;6.050;2022-10-16T04:53:54;12.80;99.90
37412;DHT22;23278;52.110;6.050;2022-10-16T04:56:21;12.80;99.90
37412;DHT22;23278;52.110;6.050;2022-10-16T04:58:50;12.90;99.90
37412;DHT22;23278;52.110;6.050;2022-10-16T05:01:16;12.80;99.90
37412;DHT22;23278;52.110;6.050;2022-10-16T05:03:42;12.80;99.90
37412;DHT22;23278;52.110;6.050;2022-10-16T05:06:07;12.70;99.90
37412;DHT22;23278;52.110;6.050;2022-10-16T05:08:33;12.70;99.90
37412;DHT22;23278;52.110;6.050;2022-10-16T05:10:59;12.60;99.90
37412;DHT22;23278;52.110;6.050;2022-10-16T05:13:26;12.60;99.90
37412;DHT22;23278;52.110;6.050;2022-10-16T05:15:51;12.60;99.90
37412;DHT22;23278;52.110;6.050;2022-10-16T05:18:17;12.60;99.90
37412;DHT22;23278;52.110;6.050;2022-10-16T05:20:43;12.60;99.90
37412;DHT22;23278;52.110;6.050;2022-10-16T05:23:09;12.60;99.90
37412;DHT22;23278;52.110;6.050;2022-10-16T05:25:36;12.60;99.90
37412;DHT22;23278;52.110;6.050;2022-10-16T05:28:03;12.60;99.90
37412;DHT22;23278;52.110;6.050;2022-10-16T05:30:29;12.50;99.90
37412;DHT22;23278;52.110;6.050;2022-10-16T05:32:54;12.50;99.90
37412;DHT22;23278;52.110;6.050;2022-10-16T05:35:21;12.50;99.90
37412;DHT22;23278;52.110;6.050;2022-10-16T05:37:47;12.50;99.90
37412;DHT22;23278;52.110;6.050;2022-10-16T05:40:14;12.50;99.90
37412;DHT22;23278;52.110;6.050;2022-10-16T05:42:40;12.40;99.90
37412;DHT22;23278;52.110;6.050;2022-10-16T05:45:09;12.40;99.90
37412;DHT22;23278;52.110;6.050;2022-10-16T05:47:35;12.40;99.90
37412;DHT22;23278;52.110;6.050;2022-10-16T05:50:01;12.40;99.90
37412;DHT22;23278;52.110;6.050;2022-10-16T05:52:27;12.40;99.90
37412;DHT22;23278;52.110;6.050;2022-10-16T05:54:53;12.40;99.90
37412;DHT22;23278;52.110;6.050;2022-10-16T05:57:19;12.30;99.90
37412;DHT22;23278;52.110;6.050;2022-10-16T05:59:45;12.30;99.90
37412;DHT22;23278;52.110;6.050;2022-10-16T06:02:16;12.30;99.90
37412;DHT22;23278;52.110;6.050;2022-10-16T06:04:42;12.20;99.90
37412;DHT22;23278;52.110;6.050;2022-10-16T06:07:08;12.20;99.90
37412;DHT22;23278;52.110;6.050;2022-10-16T06:09:34;12.20;99.90
37412;DHT22;23278;52.110;6.050;2022-10-16T06:12:00;12.20;99.90
37412;DHT22;23278;52.110;6.050;2022-10-16T06:14:26;12.20;99.90
37412;DHT22;23278;52.110;6.050;2022-10-16T06:16:52;12.20;99.90
37412;DHT22;23278;52.110;6.050;2022-10-16T06:19:17;12.20;99.90
37412;DHT22;23278;52.110;6.050;2022-10-16T06:21:44;12.20;99.90
37412;DHT22;23278;52.110;6.050;2022-10-16T06:24:10;12.20;99.90
37412;DHT22;23278;52.110;6.050;2022-10-16T06:26:37;12.30;99.90
37412;DHT22;23278;52.110;6.050;2022-10-16T06:29:04;12.40;99.90
37412;DHT22;23278;52.110;6.050;2022-10-16T06:31:30;12.50;99.90
37412;DHT22;23278;52.110;6.050;2022-10-16T06:33:59;12.60;99.90
37412;DHT22;23278;52.110;6.050;2022-10-16T06:36:25;12.70;99.90
37412;DHT22;23278;52.110;6.050;2022-10-16T06:38:52;12.80;99.90
37412;DHT22;23278;52.110;6.050;2022-10-16T06:41:20;12.90;99.90
37412;DHT22;23278;52.110;6.050;2022-10-16T06:43:47;13.00;99.90
37412;DHT22;23278;52.110;6.050;2022-10-16T06:46:15;13.10;99.90
37412;DHT22;23278;52.110;6.050;2022-10-16T06:48:41;13.20;99.90
37412;DHT22;23278;52.110;6.050;2022-10-16T06:51:18;13.30;99.90
37412;DHT22;23278;52.110;6.050;2022-10-16T06:53:50;13.30;99.90
37412;DHT22;23278;52.110;6.050;2022-10-16T06:56:17;13.40;99.90
37412;DHT22;23278;52.110;6.050;2022-10-16T06:59:13;13.40;99.90
37412;DHT22;23278;52.110;6.050;2022-10-16T07:01:39;13.40;99.90
37412;DHT22;23278;52.110;6.050;2022-10-16T07:04:05;13.50;99.90
37412;DHT22;23278;52.110;6.050;2022-10-16T07:06:33;13.50;99.90
37412;DHT22;23278;52.110;6.050;2022-10-16T07:09:02;13.60;99.90
37412;DHT22;23278;52.110;6.050;2022-10-16T07:11:28;13.70;99.90
37412;DHT22;23278;52.110;6.050;2022-10-16T07:13:54;13.80;99.90
37412;DHT22;23278;52.110;6.050;2022-10-16T07:16:22;13.80;99.90
37412;DHT22;23278;52.110;6.050;2022-10-16T07:18:48;13.80;99.90
37412;DHT22;23278;52.110;6.050;2022-10-16T07:21:22;13.80;99.90
37412;DHT22;23278;52.110;6.050;2022-10-16T07:23:56;13.80;99.90
37412;DHT22;23278;52.110;6.050;2022-10-16T07:26:24;13.80;99.90
37412;DHT22;23278;52.110;6.050;2022-10-16T07:28:51;13.80;99.90
37412;DHT22;23278;52.110;6.050;2022-10-16T07:31:18;13.90;99.90
37412;DHT22;23278;52.110;6.050;2022-10-16T07:33:45;14.00;99.90
37412;DHT22;23278;52.110;6.050;2022-10-16T07:36:17;14.10;99.90
37412;DHT22;23278;52.110;6.050;2022-10-16T07:38:44;14.20;99.90
37412;DHT22;23278;52.110;6.050;2022-10-16T07:41:13;14.40;99.90
37412;DHT22;23278;52.110;6.050;2022-10-16T07:43:40;14.50;99.90
37412;DHT22;23278;52.110;6.050;2022-10-16T07:46:06;14.60;99.90
37412;DHT22;23278;52.110;6.050;2022-10-16T07:48:34;14.70;99.90
37412;DHT22;23278;52.110;6.050;2022-10-16T07:51:05;14.80;99.90
37412;DHT22;23278;52.110;6.050;2022-10-16T07:53:31;14.90;99.90
37412;DHT22;23278;52.110;6.050;2022-10-16T07:56:03;14.90;99.90
37412;DHT22;23278;52.110;6.050;2022-10-16T07:58:29;14.90;99.90
37412;DHT22;23278;52.110;6.050;2022-10-16T08:00:56;14.90;99.90
37412;DHT22;23278;52.110;6.050;2022-10-16T08:03:30;15.00;99.90
37412;DHT22;23278;52.110;6.050;2022-10-16T08:05:57;15.10;99.90
37412;DHT22;23278;52.110;6.050;2022-10-16T08:08:23;15.30;99.90
37412;DHT22;23278;52.110;6.050;2022-10-16T08:10:49;15.50;99.90
37412;DHT22;23278;52.110;6.050;2022-10-16T08:13:17;15.50;99.90
37412;DHT22;23278;52.110;6.050;2022-10-16T08:15:43;15.50;99.90
37412;DHT22;23278;52.110;6.050;2022-10-16T08:18:12;15.70;99.90
37412;DHT22;23278;52.110;6.050;2022-10-16T08:20:39;16.10;99.90
37412;DHT22;23278;52.110;6.050;2022-10-16T08:23:06;16.50;99.90
37412;DHT22;23278;52.110;6.050;2022-10-16T08:25:34;16.80;99.90
37412;DHT22;23278;52.110;6.050;2022-10-16T08:28:03;17.00;99.90
37412;DHT22;23278;52.110;6.050;2022-10-16T08:30:30;17.10;99.70
37412;DHT22;23278;52.110;6.050;2022-10-16T08:32:56;17.40;99.70
37412;DHT22;23278;52.110;6.050;2022-10-16T08:35:24;17.60;99.10
37412;DHT22;23278;52.110;6.050;2022-10-16T08:37:50;17.60;99.30
37412;DHT22;23278;52.110;6.050;2022-10-16T08:40:28;17.60;98.90
37412;DHT22;23278;52.110;6.050;2022-10-16T08:48:43;17.80;97.90
37412;DHT22;23278;52.110;6.050;2022-10-16T08:51:31;18.10;97.90
37412;DHT22;23278;52.110;6.050;2022-10-16T08:54:26;18.30;97.10
37412;DHT22;23278;52.110;6.050;2022-10-16T08:56:55;18.60;96.50
37412;DHT22;23278;52.110;6.050;2022-10-16T08:59:22;18.80;95.60
37412;DHT22;23278;52.110;6.050;2022-10-16T09:01:50;19.00;95.50
37412;DHT22;23278;52.110;6.050;2022-10-16T09:07:58;19.40;94.60
37412;DHT22;23278;52.110;6.050;2022-10-16T09:22:48;21.00;88.60
37412;DHT22;23278;52.110;6.050;2022-10-16T09:25:20;21.20;88.10
37412;DHT22;23278;52.110;6.050;2022-10-16T09:27:48;21.60;87.00
37412;DHT22;23278;52.110;6.050;2022-10-16T09:30:19;22.00;85.10
37412;DHT22;23278;52.110;6.050;2022-10-16T09:32:49;22.30;84.00
37412;DHT22;23278;52.110;6.050;2022-10-16T09:35:32;22.90;81.10
37412;DHT22;23278;52.110;6.050;2022-10-16T09:38:00;23.40;77.50
37412;DHT22;23278;52.110;6.050;2022-10-16T09:40:33;23.40;74.60
37412;DHT22;23278;52.110;6.050;2022-10-16T09:43:22;23.30;74.90
37412;DHT22;23278;52.110;6.050;2022-10-16T09:46:21;23.40;73.50
37412;DHT22;23278;52.110;6.050;2022-10-16T09:48:49;23.90;72.90
37412;DHT22;23278;52.110;6.050;2022-10-16T09:51:44;24.20;70.00
37412;DHT22;23278;52.110;6.050;2022-10-16T09:54:14;23.70;70.30
37412;DHT22;23278;52.110;6.050;2022-10-16T09:56:41;23.40;70.30
37412;DHT22;23278;52.110;6.050;2022-10-16T09:59:18;23.50;69.40
37412;DHT22;23278;52.110;6.050;2022-10-16T10:01:47;23.20;69.30
37412;DHT22;23278;52.110;6.050;2022-10-16T10:04:14;23.30;70.10
37412;DHT22;23278;52.110;6.050;2022-10-16T10:06:46;24.10;68.90
37412;DHT22;23278;52.110;6.050;2022-10-16T10:09:28;25.20;64.00
37412;DHT22;23278;52.110;6.050;2022-10-16T10:12:00;25.60;61.50
37412;DHT22;23278;52.110;6.050;2022-10-16T10:22:44;26.20;58.40
37412;DHT22;23278;52.110;6.050;2022-10-16T10:28:06;25.60;58.90
37412;DHT22;23278;52.110;6.050;2022-10-16T10:31:06;25.60;58.20
37412;DHT22;23278;52.110;6.050;2022-10-16T10:36:27;24.90;59.30
37412;DHT22;23278;52.110;6.050;2022-10-16T10:39:34;24.60;59.70
37412;DHT22;23278;52.110;6.050;2022-10-16T10:42:35;23.70;61.60
37412;DHT22;23278;52.110;6.050;2022-10-16T10:53:42;26.10;54.70
37412;DHT22;23278;52.110;6.050;2022-10-16T10:59:15;27.30;54.30
37412;DHT22;23278;52.110;6.050;2022-10-16T11:07:17;29.70;48.20
37412;DHT22;23278;52.110;6.050;2022-10-16T11:09:53;28.90;47.80
37412;DHT22;23278;52.110;6.050;2022-10-16T11:12:29;27.60;49.80
37412;DHT22;23278;52.110;6.050;2022-10-16T11:15:20;26.80;50.70
37412;DHT22;23278;52.110;6.050;2022-10-16T11:18:06;26.60;51.10
37412;DHT22;23278;52.110;6.050;2022-10-16T11:20:48;27.30;50.00
37412;DHT22;23278;52.110;6.050;2022-10-16T11:26:08;29.90;46.70
37412;DHT22;23278;52.110;6.050;2022-10-16T11:28:42;29.20;46.70
37412;DHT22;23278;52.110;6.050;2022-10-16T11:34:00;29.00;46.10
37412;DHT22;23278;52.110;6.050;2022-10-16T11:36:40;30.00;45.10
37412;DHT22;23278;52.110;6.050;2022-10-16T11:39:40;30.40;44.20
37412;DHT22;23278;52.110;6.050;2022-10-16T11:47:50;28.20;44.40
37412;DHT22;23278;52.110;6.050;2022-10-16T11:50:37;26.30;47.40
37412;DHT22;23278;52.110;6.050;2022-10-16T11:55:48;26.90;47.90
37412;DHT22;23278;52.110;6.050;2022-10-16T12:01:18;28.90;46.00
37412;DHT22;23278;52.110;6.050;2022-10-16T12:07:04;31.10;43.20
37412;DHT22;23278;52.110;6.050;2022-10-16T12:09:35;30.50;43.40
37412;DHT22;23278;52.110;6.050;2022-10-16T12:12:02;29.40;43.80
37412;DHT22;23278;52.110;6.050;2022-10-16T12:17:34;26.80;46.90
37412;DHT22;23278;52.110;6.050;2022-10-16T12:22:53;24.80;50.10
37412;DHT22;23278;52.110;6.050;2022-10-16T12:27:59;24.70;51.40
37412;DHT22;23278;52.110;6.050;2022-10-16T12:30:28;26.70;49.40
37412;DHT22;23278;52.110;6.050;2022-10-16T12:33:01;28.80;46.60
37412;DHT22;23278;52.110;6.050;2022-10-16T12:35:31;29.50;44.60
37412;DHT22;23278;52.110;6.050;2022-10-16T12:38:48;30.20;43.80
37412;DHT22;23278;52.110;6.050;2022-10-16T12:41:00;31.40;42.40
37412;DHT22;23278;52.110;6.050;2022-10-16T12:43:40;32.40;41.20
37412;DHT22;23278;52.110;6.050;2022-10-16T12:48:34;31.70;41.80
37412;DHT22;23278;52.110;6.050;2022-10-16T12:51:11;32.60;40.90
37412;DHT22;23278;52.110;6.050;2022-10-16T12:53:38;33.40;39.90
37412;DHT22;23278;52.110;6.050;2022-10-16T12:56:27;34.10;39.40
37412;DHT22;23278;52.110;6.050;2022-10-16T13:18:33;28.50;42.40
37412;DHT22;23278;52.110;6.050;2022-10-16T13:23:58;29.00;41.30
37412;DHT22;23278;52.110;6.050;2022-10-16T13:29:05;29.50;41.50
37412;DHT22;23278;52.110;6.050;2022-10-16T13:31:32;30.20;40.80
37412;DHT22;23278;52.110;6.050;2022-10-16T13:34:00;30.90;40.60
37412;DHT22;23278;52.110;6.050;2022-10-16T13:36:29;30.50;40.70
37412;DHT22;23278;52.110;6.050;2022-10-16T13:39:20;29.90;41.40
37412;DHT22;23278;52.110;6.050;2022-10-16T13:42:43;29.40;41.60
37412;DHT22;23278;52.110;6.050;2022-10-16T13:44:46;28.80;41.80
37412;DHT22;23278;52.110;6.050;2022-10-16T13:47:21;28.70;41.90
37412;DHT22;23278;52.110;6.050;2022-10-16T13:52:30;28.70;42.30
37412;DHT22;23278;52.110;6.050;2022-10-16T13:54:56;28.60;42.20
37412;DHT22;23278;52.110;6.050;2022-10-16T13:57:25;28.20;42.30
37412;DHT22;23278;52.110;6.050;2022-10-16T13:59:52;28.10;42.20
37412;DHT22;23278;52.110;6.050;2022-10-16T14:04:57;29.00;41.90
37412;DHT22;23278;52.110;6.050;2022-10-16T14:07:26;29.50;40.90
37412;DHT22;23278;52.110;6.050;2022-10-16T14:09:54;29.50;41.10
37412;DHT22;23278;52.110;6.050;2022-10-16T14:12:22;28.80;41.80
37412;DHT22;23278;52.110;6.050;2022-10-16T14:14:51;28.20;42.70
37412;DHT22;23278;52.110;6.050;2022-10-16T14:17:33;27.90;43.40
37412;DHT22;23278;52.110;6.050;2022-10-16T14:20:04;27.60;43.50
37412;DHT22;23278;52.110;6.050;2022-10-16T14:22:42;27.50;43.90
37412;DHT22;23278;52.110;6.050;2022-10-16T14:25:23;27.20;43.80
37412;DHT22;23278;52.110;6.050;2022-10-16T14:28:21;26.80;44.30
37412;DHT22;23278;52.110;6.050;2022-10-16T14:30:57;26.40;45.10
37412;DHT22;23278;52.110;6.050;2022-10-16T14:36:11;26.00;46.00
37412;DHT22;23278;52.110;6.050;2022-10-16T14:38:40;26.10;46.00
37412;DHT22;23278;52.110;6.050;2022-10-16T14:41:07;26.30;46.20
37412;DHT22;23278;52.110;6.050;2022-10-16T14:43:42;26.40;46.10
37412;DHT22;23278;52.110;6.050;2022-10-16T14:46:13;26.70;46.00
37412;DHT22;23278;52.110;6.050;2022-10-16T14:48:46;26.90;45.80
37412;DHT22;23278;52.110;6.050;2022-10-16T14:51:17;27.20;45.90
37412;DHT22;23278;52.110;6.050;2022-10-16T14:53:43;27.00;45.70
37412;DHT22;23278;52.110;6.050;2022-10-16T14:56:17;26.60;46.40
37412;DHT22;23278;52.110;6.050;2022-10-16T14:59:00;26.00;47.30
37412;DHT22;23278;52.110;6.050;2022-10-16T15:01:27;25.40;48.20
37412;DHT22;23278;52.110;6.050;2022-10-16T15:03:53;24.80;48.90
37412;DHT22;23278;52.110;6.050;2022-10-16T15:06:21;24.40;49.90
37412;DHT22;23278;52.110;6.050;2022-10-16T15:08:47;24.00;50.50
37412;DHT22;23278;52.110;6.050;2022-10-16T15:11:16;23.80;51.00
37412;DHT22;23278;52.110;6.050;2022-10-16T15:13:42;23.60;51.30
37412;DHT22;23278;52.110;6.050;2022-10-16T15:16:13;23.50;51.90
37412;DHT22;23278;52.110;6.050;2022-10-16T15:18:39;23.40;52.60
37412;DHT22;23278;52.110;6.050;2022-10-16T15:21:05;23.30;52.10
37412;DHT22;23278;52.110;6.050;2022-10-16T15:23:31;23.20;52.50
37412;DHT22;23278;52.110;6.050;2022-10-16T15:25:57;23.00;52.80
37412;DHT22;23278;52.110;6.050;2022-10-16T15:28:24;22.90;53.30
37412;DHT22;23278;52.110;6.050;2022-10-16T15:30:53;22.70;53.60
37412;DHT22;23278;52.110;6.050;2022-10-16T15:33:25;22.60;54.10
37412;DHT22;23278;52.110;6.050;2022-10-16T15:35:53;22.40;54.60
37412;DHT22;23278;52.110;6.050;2022-10-16T15:38:20;22.30;54.90
37412;DHT22;23278;52.110;6.050;2022-10-16T15:40:47;22.10;55.40
37412;DHT22;23278;52.110;6.050;2022-10-16T15:43:13;22.00;55.90
37412;DHT22;23278;52.110;6.050;2022-10-16T15:45:39;21.90;56.40
37412;DHT22;23278;52.110;6.050;2022-10-16T15:48:05;21.80;57.30
37412;DHT22;23278;52.110;6.050;2022-10-16T15:50:33;21.70;57.00
37412;DHT22;23278;52.110;6.050;2022-10-16T15:53:02;21.50;57.20
37412;DHT22;23278;52.110;6.050;2022-10-16T15:55:27;21.30;57.60
37412;DHT22;23278;52.110;6.050;2022-10-16T15:57:53;21.20;58.20
37412;DHT22;23278;52.110;6.050;2022-10-16T16:00:19;21.00;58.70
37412;DHT22;23278;52.110;6.050;2022-10-16T16:02:54;20.80;59.40
37412;DHT22;23278;52.110;6.050;2022-10-16T16:05:21;20.60;60.10
37412;DHT22;23278;52.110;6.050;2022-10-16T16:07:47;20.50;60.50
37412;DHT22;23278;52.110;6.050;2022-10-16T16:10:14;20.40;61.00
37412;DHT22;23278;52.110;6.050;2022-10-16T16:12:40;20.30;61.30
37412;DHT22;23278;52.110;6.050;2022-10-16T16:15:08;20.10;61.70
37412;DHT22;23278;52.110;6.050;2022-10-16T16:17:35;20.00;62.20
37412;DHT22;23278;52.110;6.050;2022-10-16T16:20:01;19.80;62.60
37412;DHT22;23278;52.110;6.050;2022-10-16T16:22:27;19.70;63.60
37412;DHT22;23278;52.110;6.050;2022-10-16T16:24:53;19.60;63.90
37412;DHT22;23278;52.110;6.050;2022-10-16T16:27:19;19.50;64.60
37412;DHT22;23278;52.110;6.050;2022-10-16T16:29:46;19.40;64.90
37412;DHT22;23278;52.110;6.050;2022-10-16T16:32:12;19.30;65.50
37412;DHT22;23278;52.110;6.050;2022-10-16T16:34:38;19.10;65.90
37412;DHT22;23278;52.110;6.050;2022-10-16T16:37:04;19.10;66.30
37412;DHT22;23278;52.110;6.050;2022-10-16T16:39:30;19.00;66.70
37412;DHT22;23278;52.110;6.050;2022-10-16T16:41:57;19.00;67.20
37412;DHT22;23278;52.110;6.050;2022-10-16T16:44:24;18.90;67.50
37412;DHT22;23278;52.110;6.050;2022-10-16T16:46:50;18.80;67.90
37412;DHT22;23278;52.110;6.050;2022-10-16T16:49:16;18.70;68.10
37412;DHT22;23278;52.110;6.050;2022-10-16T16:51:42;18.70;68.70
37412;DHT22;23278;52.110;6.050;2022-10-16T16:54:09;18.60;69.20
37412;DHT22;23278;52.110;6.050;2022-10-16T16:56:36;18.50;69.70
37412;DHT22;23278;52.110;6.050;2022-10-16T16:59:02;18.40;70.20
37412;DHT22;23278;52.110;6.050;2022-10-16T17:01:28;18.30;70.70
37412;DHT22;23278;52.110;6.050;2022-10-16T17:03:58;18.20;71.10
37412;DHT22;23278;52.110;6.050;2022-10-16T17:06:28;18.10;71.70
37412;DHT22;23278;52.110;6.050;2022-10-16T17:08:57;18.10;72.10
37412;DHT22;23278;52.110;6.050;2022-10-16T17:11:25;18.00;72.60
37412;DHT22;23278;52.110;6.050;2022-10-16T17:13:53;18.00;73.10
37412;DHT22;23278;52.110;6.050;2022-10-16T17:16:20;17.90;73.90
37412;DHT22;23278;52.110;6.050;2022-10-16T17:18:46;17.80;74.30
37412;DHT22;23278;52.110;6.050;2022-10-16T17:21:12;17.70;74.80
37412;DHT22;23278;52.110;6.050;2022-10-16T17:23:38;17.60;75.50
37412;DHT22;23278;52.110;6.050;2022-10-16T17:26:06;17.50;76.00
37412;DHT22;23278;52.110;6.050;2022-10-16T17:28:33;17.50;76.70
37412;DHT22;23278;52.110;6.050;2022-10-16T17:31:20;17.40;77.10
37412;DHT22;23278;52.110;6.050;2022-10-16T17:33:47;17.30;77.90
37412;DHT22;23278;52.110;6.050;2022-10-16T17:36:13;17.20;78.20
37412;DHT22;23278;52.110;6.050;2022-10-16T17:38:40;17.20;78.70
37412;DHT22;23278;52.110;6.050;2022-10-16T17:41:11;17.20;79.20
37412;DHT22;23278;52.110;6.050;2022-10-16T17:43:38;17.20;80.00
37412;DHT22;23278;52.110;6.050;2022-10-16T17:46:05;17.10;80.50
37412;DHT22;23278;52.110;6.050;2022-10-16T17:48:31;17.10;81.10
37412;DHT22;23278;52.110;6.050;2022-10-16T17:50:57;17.10;81.50
37412;DHT22;23278;52.110;6.050;2022-10-16T17:53:23;17.10;81.80
37412;DHT22;23278;52.110;6.050;2022-10-16T17:55:48;17.00;82.10
37412;DHT22;23278;52.110;6.050;2022-10-16T17:58:14;17.00;82.40
37412;DHT22;23278;52.110;6.050;2022-10-16T18:00:40;17.00;82.70
37412;DHT22;23278;52.110;6.050;2022-10-16T18:03:06;17.00;83.10
37412;DHT22;23278;52.110;6.050;2022-10-16T18:05:36;17.00;83.40